Beulah, Kentucky
Current Conditions -  °F | °C
As of 8:15 PM on Friday 28 Nov 2014 (Local Time) from K2I0 Reporting Station
Clear Clear  
Wind Chill: 39°   Ceiling: Unl
Heat Index: 44°   Visibility: 10mi
Dew Point: 28°   Wind: 9mph
Humidity: 54%   Direction: 200°SSW
Pressure: 30.08"   Gusts: NA
Location:  37.196°N, 87.6728°W
Report Text: K2I0 290215Z AUTO 20008KT 10SM CLR 07/M02 A3008 RMK AO2 T00651023
Loading
Personal Weather Stations






























Interactive Weather Map New forecast layout! Learn more

10-Day Weather Forecast

Advertisements
Track Severe Weather on mobile